createdAt,value
2022-10-25T00:01:39.114Z,10.78
2022-10-25T00:04:42.552Z,10.77
2022-10-25T00:07:44.548Z,10.87
2022-10-25T00:10:46.631Z,10.87
2022-10-25T00:13:49.631Z,10.89
2022-10-25T00:16:51.481Z,10.81
2022-10-25T00:19:54.742Z,10.83
2022-10-25T00:22:57.258Z,10.82
2022-10-25T00:26:01.556Z,10.74
2022-10-25T00:29:03.819Z,10.73
2022-10-25T00:32:05.687Z,10.75
2022-10-25T00:35:09.874Z,10.77
2022-10-25T00:38:11.727Z,10.79
2022-10-25T00:41:15.647Z,10.76
2022-10-25T00:44:47.345Z,10.77
2022-10-25T00:47:54.812Z,10.71
2022-10-25T00:50:58.359Z,10.79
2022-10-25T00:54:01.373Z,10.67
2022-10-25T00:57:09.564Z,10.80
2022-10-25T01:00:12.060Z,10.89
2022-10-25T01:03:14.907Z,11.18
2022-10-25T01:06:21.851Z,11.42
2022-10-25T01:09:26.449Z,11.64
2022-10-25T01:12:28.511Z,11.77
2022-10-25T01:15:45.026Z,12.00
2022-10-25T01:19:01.678Z,12.19
2022-10-25T01:22:08.745Z,12.21
2022-10-25T01:25:42.761Z,12.32
2022-10-25T01:29:01.684Z,12.40
2022-10-25T01:32:11.244Z,12.37
2022-10-25T01:35:24.907Z,12.53
2022-10-25T01:38:37.856Z,12.43
2022-10-25T01:41:49.783Z,12.41
2022-10-25T01:45:02.058Z,12.35
2022-10-25T01:48:11.290Z,12.31
2022-10-25T01:51:15.296Z,12.34
2022-10-25T01:54:18.921Z,12.23
2022-10-25T01:57:36.950Z,12.17
2022-10-25T02:00:48.961Z,12.10
2022-10-25T02:03:58.792Z,12.02
2022-10-25T02:07:06.804Z,12.05
2022-10-25T02:10:12.877Z,11.96
2022-10-25T02:13:24.805Z,12.11
2022-10-25T02:16:29.343Z,12.07
2022-10-25T02:19:35.405Z,12.08
2022-10-25T02:22:38.936Z,12.11
2022-10-25T02:25:42.500Z,12.16
2022-10-25T02:28:46.063Z,12.13
2022-10-25T02:31:48.145Z,12.12
2022-10-25T02:34:51.434Z,12.09
2022-10-25T02:37:53.339Z,12.09
2022-10-25T02:40:55.267Z,12.00
2022-10-25T02:43:57.194Z,11.98
2022-10-25T02:46:59.216Z,11.89
2022-10-25T02:50:03.340Z,11.76
2022-10-25T02:53:05.210Z,11.69
2022-10-25T02:56:09.816Z,11.65
2022-10-25T02:59:12.342Z,11.72
2022-10-25T03:02:14.204Z,11.56
2022-10-25T03:05:17.498Z,11.58
2022-10-25T03:08:20.245Z,11.58
2022-10-25T03:11:22.147Z,11.58
2022-10-25T03:14:24.181Z,11.56
2022-10-25T03:17:26.071Z,11.47
2022-10-25T03:20:29.409Z,11.50
2022-10-25T03:23:31.569Z,11.59
2022-10-25T03:26:33.500Z,11.54
2022-10-25T03:29:35.433Z,11.48
2022-10-25T03:32:37.628Z,11.48
2022-10-25T03:35:40.979Z,11.41
2022-10-25T03:38:43.226Z,11.50
2022-10-25T03:41:45.204Z,11.50
2022-10-25T03:44:47.471Z,11.47
2022-10-25T03:47:49.714Z,11.54
2022-10-25T03:50:54.057Z,11.60
2022-10-25T03:53:56.020Z,11.71
2022-10-25T03:56:57.965Z,11.68
2022-10-25T03:59:59.920Z,11.67
2022-10-25T04:03:02.731Z,11.67
2022-10-25T04:06:06.665Z,11.66
2022-10-25T04:09:08.634Z,11.72
2022-10-25T04:12:10.615Z,11.73
2022-10-25T04:15:13.142Z,11.66
2022-10-25T04:18:15.086Z,11.72
2022-10-25T04:21:18.367Z,11.78
2022-10-25T04:24:20.317Z,11.68
2022-10-25T04:27:22.204Z,11.71
2022-10-25T04:30:24.131Z,11.73
2022-10-25T04:33:26.046Z,11.69
2022-10-25T04:36:30.231Z,11.67
2022-10-25T04:39:32.213Z,11.65
2022-10-25T04:42:34.913Z,11.61
2022-10-25T04:45:36.945Z,11.59
2022-10-25T04:48:39.346Z,11.57
2022-10-25T04:51:42.821Z,11.57
2022-10-25T04:54:44.955Z,11.49
2022-10-25T04:57:46.924Z,11.45
2022-10-25T05:00:49.088Z,11.40
2022-10-25T05:03:51.140Z,11.32
2022-10-25T05:06:54.500Z,11.34
2022-10-25T05:09:56.453Z,11.31
2022-10-25T05:12:58.389Z,11.27
2022-10-25T05:16:00.444Z,11.28
2022-10-25T05:19:02.773Z,11.33
2022-10-25T05:22:06.154Z,11.33
2022-10-25T05:25:08.642Z,11.33
2022-10-25T05:28:10.592Z,11.20
2022-10-25T05:31:15.312Z,11.16
2022-10-25T05:34:17.261Z,11.20
2022-10-25T05:37:20.654Z,11.20
2022-10-25T05:40:22.604Z,11.23
2022-10-25T05:43:24.617Z,11.20
2022-10-25T05:46:27.073Z,11.18
2022-10-25T05:49:28.960Z,11.18
2022-10-25T05:52:32.287Z,11.16
2022-10-25T05:55:34.205Z,11.17
2022-10-25T05:58:36.225Z,11.23
2022-10-25T06:01:39.831Z,11.16
2022-10-25T06:04:47.846Z,11.18
2022-10-25T06:07:53.448Z,11.14
2022-10-25T06:10:55.467Z,11.17
2022-10-25T06:13:57.538Z,11.16
2022-10-25T06:16:59.575Z,11.15
2022-10-25T06:20:01.543Z,11.13
2022-10-25T06:23:08.015Z,11.12
2022-10-25T06:26:14.173Z,11.14
2022-10-25T06:29:16.308Z,11.13
2022-10-25T06:32:18.232Z,11.13
2022-10-25T06:35:20.473Z,11.12
2022-10-25T06:38:24.380Z,11.11
2022-10-25T06:41:28.533Z,11.13
2022-10-25T06:44:30.487Z,11.07
2022-10-25T06:47:32.388Z,11.07
2022-10-25T06:50:34.309Z,11.07
2022-10-25T06:53:38.371Z,11.11
2022-10-25T06:56:40.305Z,11.11
2022-10-25T06:59:42.259Z,11.06
2022-10-25T07:02:44.320Z,11.06
2022-10-25T07:05:46.585Z,11.07
2022-10-25T07:08:53.511Z,11.07
2022-10-25T07:11:55.598Z,11.10
2022-10-25T07:14:57.510Z,11.06
2022-10-25T07:17:59.431Z,11.02
2022-10-25T07:21:02.353Z,11.10
2022-10-25T07:24:06.184Z,11.17
2022-10-25T07:27:08.096Z,11.15
2022-10-25T07:30:11.072Z,11.16
2022-10-25T07:33:13.107Z,11.22
2022-10-25T07:36:15.012Z,11.21
2022-10-25T07:39:18.361Z,11.21
2022-10-25T07:42:20.320Z,11.23
2022-10-25T07:45:25.344Z,11.25
2022-10-25T07:48:28.690Z,11.25
2022-10-25T07:51:30.662Z,11.33
2022-10-25T07:54:34.032Z,11.31
2022-10-25T07:57:36.019Z,11.21
2022-10-25T08:00:38.138Z,11.29
2022-10-25T08:03:40.048Z,11.38
2022-10-25T08:06:42.037Z,11.57
2022-10-25T08:09:45.372Z,11.56
2022-10-25T08:12:48.311Z,11.54
2022-10-25T08:15:50.857Z,11.54
2022-10-25T08:18:52.749Z,11.62
2022-10-25T08:21:54.740Z,11.62
2022-10-25T08:24:58.164Z,11.69
2022-10-25T08:28:00.194Z,11.76
2022-10-25T08:31:02.208Z,11.76
2022-10-25T08:34:04.539Z,11.82
2022-10-25T08:37:06.452Z,11.86
2022-10-25T08:40:17.977Z,11.94
2022-10-25T08:43:47.900Z,12.00
2022-10-25T08:46:56.148Z,12.02
2022-10-25T08:50:02.689Z,12.08
2022-10-25T08:53:09.010Z,12.09
2022-10-25T08:56:17.512Z,11.99
2022-10-25T08:59:26.013Z,12.03
2022-10-25T09:02:36.858Z,12.05
2022-10-25T09:05:41.509Z,12.13
2022-10-25T09:08:56.598Z,12.24
2022-10-25T09:12:09.766Z,12.52
2022-10-25T09:15:19.854Z,12.63
2022-10-25T09:18:31.542Z,12.72
2022-10-25T09:21:43.745Z,12.85
2022-10-25T09:24:57.618Z,12.91
2022-10-25T09:28:04.124Z,13.05
2022-10-25T09:31:10.869Z,13.08
2022-10-25T09:34:14.839Z,13.19
2022-10-25T09:37:21.377Z,13.20
2022-10-25T09:40:25.744Z,13.27
2022-10-25T09:43:35.463Z,13.52
2022-10-25T09:46:44.744Z,13.84
2022-10-25T09:49:50.035Z,13.97
2022-10-25T09:53:01.733Z,14.01
2022-10-25T09:56:05.185Z,13.98
2022-10-25T09:59:11.481Z,13.95
2022-10-25T10:02:17.977Z,13.86
2022-10-25T10:05:21.440Z,13.92
2022-10-25T10:08:24.252Z,14.07
2022-10-25T10:11:26.712Z,14.13
2022-10-25T10:14:36.813Z,14.09
2022-10-25T10:17:38.801Z,14.12
2022-10-25T10:20:57.343Z,14.12
2022-10-25T10:24:03.001Z,14.10
2022-10-25T10:27:08.512Z,14.11
2022-10-25T10:30:22.189Z,14.17
2022-10-25T10:33:32.737Z,14.20
2022-10-25T10:36:35.360Z,14.20
2022-10-25T10:39:48.620Z,14.20
2022-10-25T10:42:50.637Z,14.27
2022-10-25T10:46:00.203Z,14.26
2022-10-25T10:49:02.968Z,14.30
2022-10-25T10:52:05.588Z,14.27
2022-10-25T10:55:17.438Z,14.18
2022-10-25T10:58:24.969Z,14.26
2022-10-25T11:01:33.167Z,14.26
2022-10-25T11:04:46.890Z,14.20
2022-10-25T11:07:55.119Z,14.11
2022-10-25T11:11:13.366Z,14.39
2022-10-25T11:14:17.043Z,14.40
2022-10-25T11:17:24.946Z,14.57
2022-10-25T11:20:33.339Z,14.47
2022-10-25T11:23:49.306Z,14.62
2022-10-25T11:26:57.661Z,14.67
2022-10-25T11:30:07.757Z,14.72
2022-10-25T11:33:35.190Z,14.89
2022-10-25T11:36:57.458Z,14.93
2022-10-25T11:40:08.262Z,15.15
2022-10-25T11:43:40.956Z,15.39
2022-10-25T11:46:53.303Z,15.46
2022-10-25T11:50:20.024Z,15.43
2022-10-25T11:53:36.738Z,15.25
2022-10-25T11:56:49.172Z,15.46
2022-10-25T12:00:00.246Z,15.58
2022-10-25T12:03:25.920Z,15.80
2022-10-25T12:06:40.312Z,15.58
2022-10-25T12:09:51.008Z,15.46
2022-10-25T12:12:58.481Z,15.55
2022-10-25T12:16:02.755Z,15.56
2022-10-25T12:19:13.285Z,15.43
2022-10-25T12:22:20.614Z,15.38
2022-10-25T12:25:26.267Z,15.37
2022-10-25T12:28:35.576Z,15.41
2022-10-25T12:31:42.332Z,15.49
2022-10-25T12:34:47.975Z,15.49
2022-10-25T12:37:58.002Z,15.58
2022-10-25T12:41:04.685Z,15.65
2022-10-25T12:44:24.138Z,15.52
2022-10-25T12:47:43.912Z,15.56
2022-10-25T12:50:59.930Z,15.66
2022-10-25T12:54:23.003Z,15.74
2022-10-25T12:57:34.942Z,15.88
2022-10-25T13:00:43.448Z,16.02
2022-10-25T13:04:21.852Z,16.17
2022-10-25T13:07:24.587Z,16.25
2022-10-25T13:10:32.974Z,16.33
2022-10-25T13:13:36.789Z,16.39
2022-10-25T13:16:38.679Z,16.40
2022-10-25T13:19:54.081Z,16.44
2022-10-25T13:22:56.728Z,16.57
2022-10-25T13:26:07.224Z,16.75
2022-10-25T13:29:42.456Z,16.70
2022-10-25T13:33:22.783Z,16.71
2022-10-25T13:36:46.605Z,16.74
2022-10-25T13:39:53.695Z,16.69
2022-10-25T13:43:03.846Z,16.69
2022-10-25T13:46:06.013Z,16.58
2022-10-25T13:49:27.868Z,16.57
2022-10-25T13:52:32.393Z,16.57
2022-10-25T13:55:36.438Z,16.51
2022-10-25T13:58:48.145Z,16.54
2022-10-25T14:01:53.592Z,16.53
2022-10-25T14:04:55.595Z,16.42
2022-10-25T14:08:15.055Z,16.35
2022-10-25T14:11:20.614Z,16.32
2022-10-25T14:14:28.580Z,16.22
2022-10-25T14:17:34.921Z,16.23
2022-10-25T14:20:37.803Z,16.31
2022-10-25T14:23:40.941Z,16.23
2022-10-25T14:26:51.445Z,16.17
2022-10-25T14:30:11.093Z,16.20
2022-10-25T14:33:36.760Z,16.14
2022-10-25T14:36:41.449Z,16.22
2022-10-25T14:39:52.243Z,16.14
2022-10-25T14:42:55.159Z,16.26
2022-10-25T14:46:10.888Z,16.14
2022-10-25T14:49:12.841Z,16.09
2022-10-25T14:52:14.769Z,16.16
2022-10-25T14:55:21.541Z,16.14
2022-10-25T14:58:24.286Z,16.15
2022-10-25T15:01:28.237Z,16.22
2022-10-25T15:04:32.809Z,16.18
2022-10-25T15:07:39.861Z,16.28
2022-10-25T15:10:44.316Z,16.27
2022-10-25T15:13:47.484Z,16.20
2022-10-25T15:17:01.660Z,16.07
2022-10-25T15:20:23.795Z,15.93
2022-10-25T15:23:25.696Z,15.90
2022-10-25T15:26:30.171Z,16.00
2022-10-25T15:29:45.623Z,16.07
2022-10-25T15:32:49.297Z,15.91
2022-10-25T15:35:53.352Z,15.79
2022-10-25T15:39:16.823Z,15.58
2022-10-25T15:42:20.338Z,15.19
2022-10-25T15:45:22.206Z,15.06
2022-10-25T15:48:25.556Z,14.94
2022-10-25T15:51:30.948Z,14.46
2022-10-25T15:54:34.453Z,14.49
2022-10-25T15:57:36.374Z,14.39
2022-10-25T16:00:38.415Z,14.34
2022-10-25T16:03:41.767Z,14.11
2022-10-25T16:06:45.301Z,13.89
2022-10-25T16:09:47.408Z,13.47
2022-10-25T16:12:57.103Z,13.19
2022-10-25T16:16:04.662Z,13.11
2022-10-25T16:19:17.580Z,13.03
2022-10-25T16:22:19.679Z,13.27
2022-10-25T16:25:22.901Z,13.25
2022-10-25T16:31:28.367Z,12.77
2022-10-25T16:34:32.599Z,12.61
2022-10-25T16:37:34.605Z,12.39
2022-10-25T16:40:36.556Z,12.29
2022-10-25T16:43:38.723Z,12.19
2022-10-25T16:46:40.691Z,12.35
2022-10-25T16:49:44.592Z,12.25
2022-10-25T16:52:46.865Z,12.10
2022-10-25T16:55:48.925Z,11.95
2022-10-25T16:58:51.144Z,11.99
2022-10-25T17:01:55.626Z,12.13
2022-10-25T17:04:59.153Z,12.06
2022-10-25T17:08:01.638Z,11.87
2022-10-25T17:11:04.202Z,11.49
2022-10-25T17:14:06.846Z,11.06
2022-10-25T17:17:09.611Z,11.11
2022-10-25T17:20:17.098Z,11.25
2022-10-25T17:23:20.493Z,11.03
2022-10-25T17:26:22.867Z,11.06
2022-10-25T17:29:25.108Z,11.35
2022-10-25T17:32:27.104Z,11.50
2022-10-25T17:35:30.654Z,11.62
2022-10-25T17:38:33.300Z,11.46
2022-10-25T17:41:35.743Z,11.41
2022-10-25T17:44:37.941Z,11.19
2022-10-25T17:47:40.873Z,10.92
2022-10-25T17:50:46.262Z,10.60
2022-10-25T17:53:51.966Z,10.40
2022-10-25T17:56:54.784Z,10.43
2022-10-25T17:59:57.670Z,10.51
2022-10-25T18:03:00.221Z,10.75
2022-10-25T18:06:06.810Z,10.93
2022-10-25T18:09:09.891Z,10.93
2022-10-25T18:12:12.529Z,10.94
2022-10-25T18:15:15.540Z,11.01
2022-10-25T18:18:18.544Z,11.09
2022-10-25T18:21:23.130Z,10.94
2022-10-25T18:24:25.980Z,10.77
2022-10-25T18:27:30.371Z,10.93
2022-10-25T18:30:34.905Z,11.07
2022-10-25T18:33:40.380Z,10.89
2022-10-25T18:36:45.379Z,10.71
2022-10-25T18:39:47.521Z,10.65
2022-10-25T18:42:50.407Z,10.62
2022-10-25T18:45:57.138Z,10.74
2022-10-25T18:49:00.182Z,10.89
2022-10-25T18:52:04.240Z,11.05
2022-10-25T18:55:07.482Z,11.13
2022-10-25T18:58:10.245Z,10.84
2022-10-25T19:01:14.589Z,10.51
2022-10-25T19:04:17.735Z,10.63
2022-10-25T19:07:22.327Z,10.47
2022-10-25T19:10:27.247Z,10.46
2022-10-25T19:13:30.658Z,10.55
2022-10-25T19:16:35.304Z,10.82
2022-10-25T19:19:38.557Z,10.42
2022-10-25T19:22:42.796Z,10.41
2022-10-25T19:25:45.640Z,10.38
2022-10-25T19:28:48.624Z,10.64
2022-10-25T19:31:51.244Z,10.16
2022-10-25T19:34:53.632Z,10.23
2022-10-25T19:37:57.807Z,10.06
2022-10-25T19:41:01.103Z,9.78
2022-10-25T19:44:04.331Z,9.52
2022-10-25T19:47:07.719Z,9.45
2022-10-25T19:50:10.515Z,9.32
2022-10-25T19:53:14.975Z,9.39
2022-10-25T19:56:20.490Z,9.55
2022-10-25T19:59:23.057Z,9.63
2022-10-25T20:02:25.913Z,9.45
2022-10-25T20:05:29.055Z,9.34
2022-10-25T20:08:34.969Z,9.66
2022-10-25T20:11:37.953Z,9.62
2022-10-25T20:14:40.778Z,9.48
2022-10-25T20:17:44.058Z,9.67
2022-10-25T20:20:51.770Z,9.56
2022-10-25T20:23:59.578Z,9.51
2022-10-25T20:27:02.162Z,9.81
2022-10-25T20:30:05.613Z,9.64
2022-10-25T20:33:08.883Z,9.54
2022-10-25T20:36:13.372Z,9.64
2022-10-25T20:39:17.457Z,9.63
2022-10-25T20:42:20.240Z,9.88
2022-10-25T20:45:22.961Z,9.88
2022-10-25T20:48:25.463Z,9.79
2022-10-25T20:51:28.168Z,9.53
2022-10-25T20:54:31.673Z,9.51
2022-10-25T20:57:34.997Z,9.31
2022-10-25T21:00:37.176Z,9.44
2022-10-25T21:03:39.970Z,9.74
2022-10-25T21:06:41.900Z,9.85
2022-10-25T21:09:49.272Z,9.92
2022-10-25T21:12:51.478Z,9.98
2022-10-25T21:15:53.554Z,10.02
2022-10-25T21:18:55.422Z,9.99
2022-10-25T21:21:57.341Z,9.90
2022-10-25T21:25:00.629Z,9.78
2022-10-25T21:28:02.551Z,9.96
2022-10-25T21:31:06.591Z,10.02
2022-10-25T21:34:08.577Z,9.84
2022-10-25T21:37:10.528Z,9.30
2022-10-25T21:40:13.959Z,9.31
2022-10-25T21:43:15.867Z,9.49
2022-10-25T21:46:19.068Z,9.56
2022-10-25T21:49:20.880Z,9.61
2022-10-25T21:52:23.043Z,9.73
2022-10-25T21:55:26.317Z,9.35
2022-10-25T21:58:28.236Z,9.45
2022-10-25T22:01:30.831Z,9.24
2022-10-25T22:04:32.821Z,9.28
2022-10-25T22:07:34.801Z,9.40
2022-10-25T22:10:38.112Z,9.54
2022-10-25T22:13:40.361Z,9.71
2022-10-25T22:16:42.258Z,9.77
2022-10-25T22:19:44.170Z,9.76
2022-10-25T22:22:46.277Z,9.75
2022-10-25T22:25:49.893Z,9.89
2022-10-25T22:28:52.778Z,9.89
2022-10-25T22:31:54.937Z,9.67
2022-10-25T22:34:56.946Z,9.66
2022-10-25T22:37:58.916Z,9.80
2022-10-25T22:41:03.728Z,9.92
2022-10-25T22:44:06.302Z,9.80
2022-10-25T22:47:08.233Z,9.82
2022-10-25T22:50:10.785Z,9.89
2022-10-25T22:53:12.724Z,9.89
2022-10-25T22:56:17.729Z,9.75
2022-10-25T22:59:19.722Z,9.78
2022-10-25T23:02:21.875Z,9.81
2022-10-25T23:05:23.817Z,9.65
2022-10-25T23:08:25.910Z,9.54
2022-10-25T23:11:30.741Z,9.62
2022-10-25T23:14:32.655Z,9.64
2022-10-25T23:17:34.621Z,9.66
2022-10-25T23:20:36.525Z,9.70
2022-10-25T23:23:38.857Z,9.79
2022-10-25T23:26:42.374Z,9.88
2022-10-25T23:29:44.257Z,9.85
2022-10-25T23:32:46.168Z,9.78
2022-10-25T23:35:48.108Z,9.80
2022-10-25T23:38:51.308Z,9.84
2022-10-25T23:41:54.611Z,9.77
2022-10-25T23:44:56.525Z,9.50
2022-10-25T23:47:58.717Z,9.29
2022-10-25T23:51:02.307Z,9.34
2022-10-25T23:54:04.428Z,9.47
2022-10-25T23:57:07.705Z,9.58
